Time;durP1;ratioP1;P1;durP2;ratioP2;P2;SDS_P1;SDS_P2;PMS_P1;PMS_P2;Temp;Humidity;BMP_temperature;BMP_pressure;BME280_temperature;BME280_humidity;BME280_pressure;Samples;Min_cycle;Max_cycle;Signal;HPM_P1;HPM_P2
2021/12/31 00:02:14;;;;;;;11.47;10.53;;;;;;;13.15;100.00;100716.22;5074309;28;20205;-79
2021/12/31 00:04:41;;;;;;;9.47;8.87;;;;;;;13.09;99.93;100716.38;5075690;28;20212;-78
2021/12/31 00:07:07;;;;;;;7.67;7.17;;;;;;;13.13;99.33;100732.91;5074895;28;20232;-79
2021/12/31 00:09:35;;;;;;;9.57;8.97;;;;;;;13.14;98.72;100753.84;5074686;28;20263;-78
2021/12/31 00:12:02;;;;;;;10.53;9.73;;;;;;;13.12;98.89;100753.00;5074496;28;20212;-78
2021/12/31 00:14:29;;;;;;;11.17;10.37;;;;;;;13.15;98.52;100763.41;5074665;28;20212;-79
2021/12/31 00:16:55;;;;;;;9.17;8.47;;;;;;;13.13;98.15;100765.22;5074512;28;20745;-79
2021/12/31 00:19:23;;;;;;;9.53;8.83;;;;;;;13.11;98.05;100765.25;5074123;28;20205;-77
2021/12/31 00:21:51;;;;;;;9.63;8.47;;;;;;;13.13;98.18;100773.06;5072889;28;20290;-78
2021/12/31 00:24:17;;;;;;;10.93;10.13;;;;;;;13.17;98.22;100769.47;5072822;28;20251;-78
2021/12/31 00:26:45;;;;;;;10.30;9.60;;;;;;;13.11;97.72;100772.25;5072538;28;20234;-78
2021/12/31 00:29:13;;;;;;;8.33;7.70;;;;;;;13.14;97.51;100782.69;5069214;28;20266;-78
2021/12/31 00:31:40;;;;;;;11.03;9.53;;;;;;;13.20;97.13;100798.25;5072402;28;20273;-77
2021/12/31 00:34:06;;;;;;;9.13;8.40;;;;;;;13.21;96.41;100818.31;5072120;28;20209;-78
2021/12/31 00:36:39;;;;;;;10.07;9.37;;;;;;;13.24;95.68;100822.59;5072482;28;20200;-78
2021/12/31 00:39:06;;;;;;;7.93;7.43;;;;;;;13.22;95.19;100850.63;5072906;28;20234;-79
2021/12/31 00:41:32;;;;;;;7.73;7.33;;;;;;;13.23;95.20;100858.47;5072628;28;20208;-77
2021/12/31 00:44:02;;;;;;;8.17;7.67;;;;;;;13.17;94.41;100850.75;5072285;28;20235;-78
2021/12/31 00:46:30;;;;;;;8.60;8.00;;;;;;;13.16;94.76;100854.28;5072292;28;20732;-78
2021/12/31 00:48:57;;;;;;;8.50;8.00;;;;;;;13.14;94.80;100863.03;5072186;28;20258;-78
2021/12/31 00:51:24;;;;;;;8.90;8.30;;;;;;;13.15;94.83;100868.25;5072418;28;20208;-78
2021/12/31 00:53:50;;;;;;;8.17;7.50;;;;;;;13.16;94.60;100867.38;5071864;28;20744;-78
2021/12/31 00:56:17;;;;;;;8.40;7.70;;;;;;;13.17;94.64;100871.72;5072311;28;20205;-77
2021/12/31 00:58:43;;;;;;;8.13;7.60;;;;;;;13.19;93.98;100887.41;5071592;28;20228;-77
2021/12/31 01:01:16;;;;;;;8.63;8.10;;;;;;;13.21;94.25;100888.25;5072354;28;20663;-78
2021/12/31 01:03:43;;;;;;;7.30;6.90;;;;;;;13.19;94.30;100877.78;5072263;28;20208;-78
2021/12/31 01:06:09;;;;;;;6.50;6.00;;;;;;;13.17;94.05;100881.34;5072236;28;20277;-78
2021/12/31 01:08:36;;;;;;;7.27;6.77;;;;;;;13.17;93.80;100890.06;5072111;28;20225;-77
2021/12/31 01:11:05;;;;;;;6.50;6.00;;;;;;;13.08;94.42;100877.16;5072095;28;20203;-78
2021/12/31 01:13:36;;;;;;;5.27;4.97;;;;;;;12.99;95.90;100835.44;5071864;28;20207;-77
2021/12/31 01:16:03;;;;;;;5.90;5.50;;;;;;;12.82;97.62;100772.94;5072420;28;20216;-78
2021/12/31 01:21:11;;;;;;;7.90;7.40;;;;;;;12.67;99.56;100703.44;5071572;28;20208;-77
2021/12/31 01:23:38;;;;;;;5.93;5.57;;;;;;;12.69;99.47;100710.34;5071634;28;20200;-78
2021/12/31 01:26:04;;;;;;;6.57;6.17;;;;;;;12.64;98.82;100721.81;5072402;28;20196;-78
2021/12/31 01:28:31;;;;;;;7.10;6.70;;;;;;;12.62;98.49;100731.47;5071418;28;20298;-78
2021/12/31 01:30:57;;;;;;;5.03;4.73;;;;;;;12.66;98.01;100759.31;5072162;28;20631;-78
2021/12/31 01:33:24;;;;;;;5.00;4.73;;;;;;;12.72;96.91;100790.59;5071638;28;20204;-77
2021/12/31 01:35:52;;;;;;;5.30;5.00;;;;;;;12.76;96.45;100789.63;5071822;28;20739;-78
2021/12/31 01:38:18;;;;;;;5.50;5.13;;;;;;;12.78;95.38;100818.44;5071677;28;20756;-78
2021/12/31 01:40:45;;;;;;;5.43;5.13;;;;;;;12.80;95.37;100830.59;5072040;28;20213;-78
2021/12/31 01:43:12;;;;;;;4.57;4.27;;;;;;;12.83;94.70;100863.75;5071410;28;20633;-77
2021/12/31 01:45:43;;;;;;;5.57;5.23;;;;;;;12.87;94.78;100871.50;5072891;28;20201;-78
2021/12/31 01:48:22;;;;;;;5.77;5.37;;;;;;;12.84;94.20;100868.06;5076944;28;20236;-78
2021/12/31 01:50:49;;;;;;;5.10;4.70;;;;;;;12.83;94.55;100874.22;5075782;28;20208;-78
2021/12/31 01:53:17;;;;;;;5.63;5.23;;;;;;;12.86;94.80;100858.41;5075231;28;20219;-77
2021/12/31 01:55:44;;;;;;;5.13;4.83;;;;;;;12.81;94.63;100857.66;5075937;28;20262;-78
2021/12/31 01:58:13;;;;;;;5.70;5.40;;;;;;;12.85;94.34;100864.56;5075120;28;20221;-78
2021/12/31 02:00:39;;;;;;;5.93;5.53;;;;;;;12.83;93.01;100896.03;5075108;28;20230;-77
2021/12/31 02:03:06;;;;;;;5.63;5.20;;;;;;;12.85;93.02;100893.38;5074984;28;20257;-78
2021/12/31 02:05:33;;;;;;;5.80;5.43;;;;;;;12.83;91.94;100924.00;5075616;28;20208;-78
2021/12/31 02:08:00;;;;;;;6.00;5.60;;;;;;;12.87;91.55;100928.28;5075388;28;20239;-77
2021/12/31 02:10:28;;;;;;;6.03;5.63;;;;;;;12.89;92.04;100926.50;5075209;28;20215;-77
2021/12/31 02:12:55;;;;;;;5.70;5.30;;;;;;;12.92;90.58;100957.84;5074705;28;20262;-78
2021/12/31 02:15:22;;;;;;;6.67;6.17;;;;;;;12.95;90.99;100960.44;5075072;28;20204;-78
2021/12/31 02:17:49;;;;;;;6.33;5.93;;;;;;;12.91;91.48;100936.03;5075252;28;20224;-78
2021/12/31 02:20:18;;;;;;;5.47;5.07;;;;;;;12.86;92.12;100932.66;5075326;28;20208;-78
2021/12/31 02:22:53;;;;;;;5.30;4.90;;;;;;;12.83;92.86;100918.75;5074917;28;20216;-78
2021/12/31 02:25:22;;;;;;;5.80;5.50;;;;;;;12.81;93.67;100897.81;5075185;28;20207;-78
2021/12/31 02:27:48;;;;;;;5.33;5.03;;;;;;;12.75;93.56;100863.91;5074413;28;20260;-78
2021/12/31 02:30:15;;;;;;;4.90;4.70;;;;;;;12.70;93.84;100869.25;5074687;28;20231;-78
2021/12/31 02:32:44;;;;;;;5.00;4.60;;;;;;;12.69;93.65;100871.88;5075653;28;20208;-78
2021/12/31 02:35:11;;;;;;;5.30;4.87;;;;;;;12.75;93.64;100870.91;5076354;28;20201;-78
2021/12/31 02:37:39;;;;;;;5.47;5.07;;;;;;;12.71;94.11;100868.34;5076326;28;20220;-78
2021/12/31 02:40:09;;;;;;;5.60;5.20;;;;;;;12.75;94.10;100863.91;5076102;28;20211;-78
2021/12/31 02:42:36;;;;;;;6.57;6.03;;;;;;;12.73;94.61;100860.44;5075255;28;20291;-78
2021/12/31 02:45:06;;;;;;;4.37;4.13;;;;;;;12.68;94.76;100863.16;5076723;28;20234;-79
2021/12/31 02:47:32;;;;;;;5.20;4.80;;;;;;;12.74;95.04;100840.34;5076183;28;20229;-78
2021/12/31 02:50:02;;;;;;;6.67;6.17;;;;;;;12.63;95.52;100846.69;5076691;28;20208;-78
2021/12/31 02:52:28;;;;;;;7.60;7.10;;;;;;;12.60;95.66;100824.94;5076255;28;20204;-78
2021/12/31 02:54:59;;;;;;;5.53;5.23;;;;;;;12.67;95.39;100826.53;5076138;28;20230;-78
2021/12/31 02:57:26;;;;;;;7.83;7.23;;;;;;;12.62;95.75;100826.59;5074823;28;20256;-78
2021/12/31 02:59:52;;;;;;;10.50;9.47;;;;;;;12.61;96.48;100816.19;5075552;28;20739;-78
2021/12/31 03:02:24;;;;;;;8.37;7.87;;;;;;;12.56;96.76;100787.47;5075479;28;20256;-78
2021/12/31 03:04:52;;;;;;;8.43;7.83;;;;;;;12.46;97.97;100767.63;5075911;28;20706;-77
2021/12/31 03:07:21;;;;;;;9.53;8.73;;;;;;;12.42;98.05;100765.97;5075894;28;20232;-78
2021/12/31 03:09:50;;;;;;;9.17;8.50;;;;;;;12.46;98.19;100758.00;5075626;28;20265;-78
2021/12/31 03:12:18;;;;;;;10.43;9.63;;;;;;;12.48;98.25;100757.97;5075511;28;20205;-78
2021/12/31 03:14:48;;;;;;;11.30;10.43;;;;;;;12.48;98.55;100745.72;5075145;28;20679;-78
2021/12/31 03:17:15;;;;;;;10.93;10.23;;;;;;;12.43;99.14;100736.28;5075639;28;20772;-77
2021/12/31 03:19:42;;;;;;;10.87;10.07;;;;;;;12.43;99.05;100731.03;5075434;28;20212;-78
2021/12/31 03:22:09;;;;;;;11.23;10.50;;;;;;;12.47;98.58;100722.22;5075662;28;20273;-78
2021/12/31 03:24:35;;;;;;;13.17;12.30;;;;;;;12.57;98.18;100739.44;5075916;28;20204;-78
2021/12/31 03:27:01;;;;;;;13.63;12.63;;;;;;;12.53;98.08;100748.28;5075594;28;20286;-79
2021/12/31 03:29:32;;;;;;;12.23;11.33;;;;;;;12.50;98.08;100749.19;5075606;28;20250;-78
2021/12/31 03:31:58;;;;;;;12.00;11.10;;;;;;;12.51;97.87;100739.59;5074854;28;20622;-79
2021/12/31 03:34:25;;;;;;;11.30;10.30;;;;;;;12.53;97.79;100756.13;5075630;28;20234;-78
2021/12/31 03:36:51;;;;;;;10.13;9.43;;;;;;;12.57;97.70;100767.41;5075161;28;20205;-78
2021/12/31 03:39:17;;;;;;;11.00;10.10;;;;;;;12.58;97.44;100771.72;5075332;28;20683;-78
2021/12/31 03:41:45;;;;;;;9.77;9.07;;;;;;;12.57;97.13;100762.16;5074771;28;20204;-78
2021/12/31 03:44:11;;;;;;;10.80;10.03;;;;;;;12.60;96.90;100772.56;5075063;28;20211;-78
2021/12/31 03:46:39;;;;;;;10.00;9.30;;;;;;;12.58;96.99;100775.19;5075157;28;20690;-78
2021/12/31 03:49:05;;;;;;;10.93;9.93;;;;;;;12.60;97.15;100769.94;5075550;28;20236;-78
2021/12/31 03:51:32;;;;;;;10.40;9.70;;;;;;;12.60;97.37;100769.94;5073337;28;20224;-77
2021/12/31 03:53:58;;;;;;;10.40;9.80;;;;;;;12.61;97.21;100767.28;5073490;28;20250;-78
2021/12/31 03:56:29;;;;;;;9.60;8.50;;;;;;;12.59;97.05;100783.94;5073385;28;20203;-78
2021/12/31 03:58:57;;;;;;;9.07;8.47;;;;;;;12.58;96.83;100787.44;5072207;28;20221;-77
2021/12/31 04:01:23;;;;;;;9.87;9.17;;;;;;;12.58;96.91;100796.16;5072873;28;20231;-78
2021/12/31 04:03:51;;;;;;;9.33;8.67;;;;;;;12.58;96.45;100795.28;5073259;28;20231;-76
2021/12/31 04:06:17;;;;;;;8.43;7.73;;;;;;;12.64;96.12;100801.25;5073223;28;20209;-78
2021/12/31 04:08:44;;;;;;;11.90;11.10;;;;;;;12.68;95.93;100818.63;5072984;28;20231;-78
2021/12/31 04:11:13;;;;;;;11.43;10.70;;;;;;;12.67;96.00;100821.28;5072817;28;20805;-78
2021/12/31 04:13:39;;;;;;;9.70;8.83;;;;;;;12.69;95.88;100819.50;5072691;28;20212;-78
2021/12/31 04:16:06;;;;;;;9.80;9.10;;;;;;;12.69;95.59;100838.69;5073050;28;20278;-77
2021/12/31 04:18:32;;;;;;;12.63;11.70;;;;;;;12.71;95.10;100839.53;5072709;28;20226;-78
2021/12/31 04:21:01;;;;;;;10.53;9.63;;;;;;;12.75;95.12;100847.31;5072773;28;20255;-78
2021/12/31 04:23:31;;;;;;;10.07;9.30;;;;;;;12.76;94.49;100856.91;5072330;28;20220;-78
2021/12/31 04:25:58;;;;;;;9.07;8.23;;;;;;;12.77;94.39;100856.00;5072644;28;20630;-78
2021/12/31 04:28:25;;;;;;;7.27;6.77;;;;;;;12.81;93.98;100874.25;5071712;28;20229;-78
2021/12/31 04:30:52;;;;;;;6.23;5.73;;;;;;;12.83;93.67;100880.31;5072640;28;20895;-78
2021/12/31 04:33:18;;;;;;;6.73;5.90;;;;;;;12.83;93.03;100885.56;5072386;28;20679;-78
2021/12/31 04:35:45;;;;;;;7.07;6.50;;;;;;;12.82;93.28;100885.56;5072576;28;20674;-78
2021/12/31 04:38:13;;;;;;;6.47;6.00;;;;;;;12.85;93.06;100898.63;5072676;28;20224;-78
2021/12/31 04:40:40;;;;;;;7.20;6.70;;;;;;;12.86;93.02;100900.34;5072087;28;20266;-78
2021/12/31 04:43:06;;;;;;;7.20;6.60;;;;;;;12.84;92.96;100895.16;5072271;28;20204;-78
2021/12/31 04:45:34;;;;;;;6.57;6.07;;;;;;;12.90;92.40;100896.75;5072773;28;20209;-78
2021/12/31 04:48:01;;;;;;;6.93;6.33;;;;;;;12.79;92.39;100904.00;5072331;28;20236;-78
2021/12/31 04:50:28;;;;;;;6.17;5.77;;;;;;;12.79;92.38;100902.22;5072385;28;20229;-78
2021/12/31 04:52:54;;;;;;;4.70;4.30;;;;;;;12.84;91.35;100908.25;5072088;28;20234;-78
2021/12/31 04:55:22;;;;;;;5.97;5.43;;;;;;;12.91;91.33;100919.47;5072415;28;20288;-77
2021/12/31 04:57:49;;;;;;;5.27;4.87;;;;;;;12.92;90.72;100923.78;5071958;28;20220;-77
2021/12/31 05:00:16;;;;;;;4.97;4.47;;;;;;;12.91;90.90;100928.16;5071699;28;20258;-78
2021/12/31 05:02:43;;;;;;;4.77;4.47;;;;;;;12.92;90.34;100926.41;5072055;28;20196;-78
2021/12/31 05:05:09;;;;;;;4.43;4.13;;;;;;;12.93;90.68;100927.28;5071891;28;20231;-77
2021/12/31 05:07:36;;;;;;;4.13;3.77;;;;;;;12.87;90.16;100947.47;5071336;28;20270;-77
2021/12/31 05:10:03;;;;;;;4.20;3.80;;;;;;;12.89;90.42;100924.72;5072167;28;20207;-78
2021/12/31 05:12:33;;;;;;;4.33;3.97;;;;;;;12.89;89.94;100927.34;5071790;28;20663;-78
2021/12/31 05:15:00;;;;;;;3.87;3.53;;;;;;;12.95;90.27;100921.13;5071868;28;20295;-78
2021/12/31 05:17:27;;;;;;;3.20;2.90;;;;;;;12.96;89.73;100929.84;5072994;28;20227;-77
2021/12/31 05:19:54;;;;;;;3.30;2.70;;;;;;;12.94;89.12;100944.72;5073881;28;20232;-78
2021/12/31 05:22:20;;;;;;;2.83;2.63;;;;;;;12.98;89.42;100947.25;5076760;28;20212;-78
2021/12/31 05:24:47;;;;;;;3.00;2.80;;;;;;;13.02;88.26;100958.53;5077466;28;20571;-78
2021/12/31 05:27:13;;;;;;;2.90;2.20;;;;;;;13.05;87.91;100982.91;5077743;28;20239;-78
2021/12/31 05:29:41;;;;;;;2.97;2.37;;;;;;;13.06;88.61;100971.56;5093402;22;20228;-81
2021/12/31 05:32:08;;;;;;;2.87;2.37;;;;;;;13.05;88.57;100969.81;5088352;28;20279;-82
2021/12/31 05:34:35;;;;;;;3.10;1.70;;;;;;;13.07;87.38;100980.28;5088881;28;20670;-83
2021/12/31 05:37:03;;;;;;;3.30;3.00;;;;;;;13.09;87.68;100989.81;5092453;28;20203;-82
2021/12/31 05:39:29;;;;;;;2.30;1.97;;;;;;;13.11;87.12;100997.66;5099059;28;20204;-83
2021/12/31 05:41:56;;;;;;;2.30;2.10;;;;;;;13.10;87.60;100998.53;5099232;28;20690;-83
2021/12/31 05:44:22;;;;;;;3.53;1.73;;;;;;;13.07;86.72;101019.59;5099841;28;20208;-82
2021/12/31 05:46:52;;;;;;;3.87;2.87;;;;;;;13.07;86.84;101004.72;5099312;28;20209;-83
2021/12/31 05:49:18;;;;;;;3.07;2.60;;;;;;;13.08;86.75;101011.72;5099463;28;20224;-82
2021/12/31 05:51:45;;;;;;;2.17;1.97;;;;;;;13.09;87.10;101018.66;5099811;28;20235;-82
2021/12/31 05:54:11;;;;;;;2.43;1.90;;;;;;;13.11;86.47;101003.75;5099319;28;20261;-83
2021/12/31 05:56:38;;;;;;;2.87;2.53;;;;;;;13.11;86.28;101029.97;5100171;28;20234;-83
2021/12/31 05:59:04;;;;;;;2.57;2.37;;;;;;;13.14;86.00;101047.41;5099370;28;20230;-82
2021/12/31 06:01:31;;;;;;;2.37;1.80;;;;;;;13.19;85.78;101055.19;5103297;28;20236;-82
2021/12/31 06:03:59;;;;;;;4.03;3.73;;;;;;;13.18;84.99;101077.03;5096216;28;20208;-83
2021/12/31 06:06:25;;;;;;;5.10;4.23;;;;;;;13.21;85.03;101069.13;5090550;28;20724;-83
2021/12/31 06:08:51;;;;;;;9.87;3.67;;;;;;;13.19;85.34;101066.53;5099519;28;20702;-82
2021/12/31 06:11:18;;;;;;;3.93;3.50;;;;;;;13.18;85.37;101051.72;5099348;28;20220;-83
2021/12/31 06:13:49;;;;;;;5.57;4.70;;;;;;;13.16;85.62;101045.63;5075158;28;20229;-83
2021/12/31 06:16:15;;;;;;;3.73;3.23;;;;;;;13.18;84.50;101067.44;5069646;28;20218;-83
2021/12/31 06:18:42;;;;;;;3.97;3.53;;;;;;;13.26;83.50;101093.47;5068274;28;20200;-82
2021/12/31 06:21:12;;;;;;;4.90;4.50;;;;;;;13.28;84.28;101076.84;5068296;28;20269;-83
2021/12/31 06:23:39;;;;;;;4.23;2.40;;;;;;;13.25;84.46;101076.03;5066397;28;20263;-82
2021/12/31 06:26:05;;;;;;;6.43;2.87;;;;;;;13.27;83.76;101103.09;5068915;28;20672;-82
2021/12/31 06:28:31;;;;;;;1.90;1.80;;;;;;;13.25;83.71;101089.13;5068952;28;20635;-83
2021/12/31 06:30:58;;;;;;;3.77;2.73;;;;;;;13.26;83.96;101089.13;5066164;28;20225;-82
2021/12/31 06:33:24;;;;;;;5.27;2.60;;;;;;;13.25;84.04;101089.13;5066616;28;20208;-83
2021/12/31 06:35:50;;;;;;;5.80;2.60;;;;;;;13.22;84.10;101094.44;5072754;28;20201;-82
2021/12/31 06:38:18;;;;;;;3.60;1.77;;;;;;;13.22;83.94;101076.97;5069788;28;20193;-82
2021/12/31 06:40:45;;;;;;;4.10;1.63;;;;;;;13.28;82.40;101112.69;5070117;28;20235;-82
2021/12/31 06:43:11;;;;;;;1.53;1.40;;;;;;;13.29;82.24;101110.03;5066806;28;20201;-82
2021/12/31 06:45:37;;;;;;;2.30;1.17;;;;;;;13.30;83.15;101096.06;5069005;28;20197;-82
2021/12/31 06:48:05;;;;;;;1.93;1.20;;;;;;;13.30;82.23;101108.31;5068147;28;20893;-82
2021/12/31 06:50:31;;;;;;;1.60;1.23;;;;;;;13.30;82.21;101100.44;5067317;28;20227;-82
2021/12/31 06:52:57;;;;;;;1.30;1.07;;;;;;;13.30;82.00;101121.41;5068413;28;20201;-82
2021/12/31 06:55:25;;;;;;;1.10;1.00;;;;;;;13.31;82.15;101115.25;5067473;28;20202;-83
2021/12/31 06:57:52;;;;;;;1.37;1.00;;;;;;;13.32;82.35;101111.78;5067351;28;20246;-82
2021/12/31 07:00:19;;;;;;;1.37;1.27;;;;;;;13.31;81.83;101118.75;5066604;28;20221;-82
2021/12/31 07:02:49;;;;;;;1.73;0.90;;;;;;;13.32;81.78;101119.63;5067909;28;20258;-82
2021/12/31 07:05:17;;;;;;;2.13;1.27;;;;;;;13.28;82.04;101102.22;5072733;28;20250;-83
2021/12/31 07:07:43;;;;;;;1.23;1.00;;;;;;;13.29;82.67;101096.06;5070144;28;20263;-82
2021/12/31 07:10:10;;;;;;;2.37;1.40;;;;;;;13.22;83.01;101089.19;5066358;28;20251;-82
2021/12/31 07:12:38;;;;;;;0.90;0.90;;;;;;;13.20;82.78;101091.84;5068196;28;20219;-83
2021/12/31 07:15:05;;;;;;;2.70;1.20;;;;;;;13.26;82.70;101096.97;5066989;28;20201;-82
2021/12/31 07:17:31;;;;;;;1.67;1.40;;;;;;;13.18;82.16;101104.13;5066866;28;20196;-82
2021/12/31 07:19:58;;;;;;;1.23;1.13;;;;;;;13.19;82.54;101084.03;5068030;28;20219;-82
2021/12/31 07:22:24;;;;;;;2.40;1.23;;;;;;;13.17;82.82;101081.41;5066815;28;20689;-83
2021/12/31 07:24:51;;;;;;;2.27;1.20;;;;;;;13.11;82.57;101082.41;5067715;28;20208;-82
2021/12/31 07:27:17;;;;;;;3.20;1.27;;;;;;;13.05;82.27;101082.50;5071561;28;20193;-83
2021/12/31 07:29:45;;;;;;;1.30;0.90;;;;;;;13.09;82.94;101075.47;5066573;28;20271;-82
2021/12/31 07:32:11;;;;;;;1.30;1.20;;;;;;;13.12;82.80;101064.91;5066392;28;20733;-83
2021/12/31 07:34:37;;;;;;;1.67;1.07;;;;;;;13.03;83.16;101060.72;5072056;28;20789;-82
2021/12/31 07:37:04;;;;;;;1.90;1.20;;;;;;;13.00;83.20;101045.06;5067885;28;20665;-82
2021/12/31 07:39:32;;;;;;;1.93;1.10;;;;;;;12.97;83.35;101033.78;5066819;28;20215;-82
2021/12/31 07:41:59;;;;;;;2.57;1.40;;;;;;;13.00;83.57;101021.47;5065428;28;20202;-82
2021/12/31 07:44:25;;;;;;;3.33;1.27;;;;;;;13.02;83.35;101013.56;5065884;28;20200;-83
2021/12/31 07:46:53;;;;;;;1.00;0.90;;;;;;;13.01;83.44;101011.84;5067871;28;20205;-83
2021/12/31 07:49:19;;;;;;;1.87;1.10;;;;;;;13.03;83.10;101017.94;5069165;28;20224;-84
2021/12/31 07:51:45;;;;;;;2.87;1.00;;;;;;;12.97;82.93;101021.53;5067119;28;20275;-83
2021/12/31 07:54:13;;;;;;;1.80;1.20;;;;;;;12.97;83.32;101015.44;5067566;28;20196;-84
2021/12/31 07:56:40;;;;;;;1.60;1.50;;;;;;;12.96;82.42;101032.88;5067756;28;20243;-84
2021/12/31 07:59:06;;;;;;;4.23;3.20;;;;;;;13.00;82.89;101021.47;5070220;28;20251;-84
2021/12/31 08:01:32;;;;;;;1.47;1.37;;;;;;;13.04;82.55;101036.25;5079978;28;20226;-83
2021/12/31 08:04:00;;;;;;;2.57;1.20;;;;;;;13.02;82.79;101040.66;5089095;28;20223;-84
2021/12/31 08:06:26;;;;;;;1.90;1.30;;;;;;;13.03;82.94;101037.13;5093306;28;20211;-84
2021/12/31 08:08:53;;;;;;;3.03;1.23;;;;;;;13.02;83.09;101040.66;5089225;28;20213;-84
2021/12/31 08:11:19;;;;;;;1.10;1.00;;;;;;;13.06;83.61;101023.09;5085165;28;20277;-84
2021/12/31 08:13:45;;;;;;;2.13;0.87;;;;;;;13.04;82.86;101019.63;5085464;28;20201;-83
2021/12/31 08:16:11;;;;;;;3.03;1.00;;;;;;;13.08;82.67;101037.91;5086511;28;20181;-84
2021/12/31 08:18:38;;;;;;;1.47;1.00;;;;;;;13.07;82.50;101028.31;5086525;28;20184;-84
2021/12/31 08:21:07;;;;;;;3.43;1.20;;;;;;;13.09;82.53;101038.78;5092876;28;20243;-84
2021/12/31 08:23:33;;;;;;;1.77;1.07;;;;;;;13.15;82.40;101043.88;5090716;28;20203;-83
2021/12/31 08:26:02;;;;;;;1.77;1.00;;;;;;;13.11;81.96;101047.47;5085896;28;20412;-83
2021/12/31 08:28:28;;;;;;;2.37;0.93;;;;;;;13.10;82.49;101041.38;5084784;28;20250;-81
2021/12/31 08:30:55;;;;;;;1.30;0.73;;;;;;;13.14;82.88;101025.56;5078623;28;20239;-83
2021/12/31 08:33:22;;;;;;;1.57;1.33;;;;;;;13.17;82.08;101044.72;5065532;28;20243;-81
2021/12/31 08:35:48;;;;;;;1.10;0.90;;;;;;;13.20;82.10;101043.78;5068172;28;20201;-81
2021/12/31 08:38:16;;;;;;;1.20;0.90;;;;;;;13.22;82.07;101028.88;5065779;28;21619;-81
2021/12/31 08:40:42;;;;;;;2.07;1.10;;;;;;;13.21;81.86;101038.53;5066615;28;20227;-80
2021/12/31 08:43:08;;;;;;;1.03;0.97;;;;;;;13.22;82.29;101045.50;5066869;28;20735;-80
2021/12/31 08:45:35;;;;;;;1.33;0.97;;;;;;;13.29;82.16;101043.59;5068279;28;20227;-78
2021/12/31 08:48:02;;;;;;;0.90;0.90;;;;;;;13.35;81.17;101055.78;5065178;28;20260;-81
2021/12/31 08:50:28;;;;;;;1.00;0.90;;;;;;;13.43;80.08;101096.66;5064402;28;20306;-79
2021/12/31 08:52:56;;;;;;;1.03;0.90;;;;;;;13.49;81.09;101085.19;5066076;28;20236;-79
2021/12/31 08:55:23;;;;;;;1.13;1.10;;;;;;;13.50;80.46;101076.44;5067975;28;20223;-80
2021/12/31 08:57:50;;;;;;;1.07;0.90;;;;;;;13.51;80.82;101080.78;5062902;28;20209;-78
2021/12/31 09:00:18;;;;;;;1.00;0.87;;;;;;;13.48;81.06;101084.34;5072612;28;20225;-79
2021/12/31 09:02:45;;;;;;;1.67;1.00;;;;;;;13.51;81.12;101078.16;5063618;28;20674;-79
2021/12/31 09:05:12;;;;;;;1.33;1.00;;;;;;;13.47;80.41;101087.84;5059125;28;20256;-78
2021/12/31 09:07:38;;;;;;;4.60;1.00;;;;;;;13.46;81.00;101082.66;5054073;28;20294;-79
2021/12/31 09:10:08;;;;;;;1.47;0.93;;;;;;;13.49;80.29;101095.69;5052237;28;20237;-79
2021/12/31 09:12:36;;;;;;;2.30;0.90;;;;;;;13.49;80.31;101107.03;5052283;28;20205;-80
2021/12/31 09:15:02;;;;;;;1.27;0.80;;;;;;;13.47;80.10;101110.59;5052761;28;20287;-78
2021/12/31 09:17:28;;;;;;;1.07;0.90;;;;;;;13.47;80.56;101113.22;5052665;28;20236;-79
2021/12/31 09:19:55;;;;;;;1.87;1.00;;;;;;;13.50;80.09;101123.66;5052283;28;20241;-79
2021/12/31 09:22:21;;;;;;;1.60;0.90;;;;;;;13.51;79.61;101139.34;5056381;28;20238;-77
2021/12/31 09:24:49;;;;;;;1.43;1.00;;;;;;;13.56;80.21;101139.25;5072407;28;20201;-79
2021/12/31 09:27:16;;;;;;;0.90;0.90;;;;;;;13.58;79.24;101162.84;5071810;28;20197;-79
2021/12/31 09:29:45;;;;;;;0.80;0.80;;;;;;;13.56;79.76;101168.13;5080632;28;20221;-80
2021/12/31 09:32:12;;;;;;;0.87;0.87;;;;;;;13.60;79.09;101171.56;5077342;28;20219;-80
2021/12/31 09:34:38;;;;;;;1.20;0.80;;;;;;;13.59;79.32;101177.69;5073900;28;20202;-83
2021/12/31 09:37:05;;;;;;;0.93;0.90;;;;;;;13.58;79.83;101171.56;5075158;28;20201;-83
2021/12/31 09:39:31;;;;;;;2.60;1.30;;;;;;;13.56;78.86;101194.34;5075577;28;20715;-82
2021/12/31 09:41:57;;;;;;;0.80;0.80;;;;;;;13.55;79.39;101176.88;5072589;28;20239;-82
2021/12/31 09:44:24;;;;;;;1.10;1.00;;;;;;;13.59;79.12;101193.41;5075191;28;20201;-82
2021/12/31 09:46:51;;;;;;;1.37;1.00;;;;;;;13.56;79.87;101183.84;5075069;28;20205;-82
2021/12/31 09:49:18;;;;;;;0.90;0.90;;;;;;;13.53;79.45;101186.53;5072954;28;20315;-83
2021/12/31 09:51:45;;;;;;;1.13;1.03;;;;;;;13.50;79.55;101186.59;5086006;28;20640;-82
2021/12/31 09:54:12;;;;;;;1.47;1.37;;;;;;;13.43;79.85;101182.34;5094213;28;20277;-82
2021/12/31 09:56:40;;;;;;;2.13;1.93;;;;;;;13.48;79.74;101193.63;5095320;28;20260;-81
2021/12/31 09:59:07;;;;;;;1.80;1.43;;;;;;;13.45;80.05;101180.56;5086147;28;20204;-83
2021/12/31 10:01:33;;;;;;;1.70;1.30;;;;;;;13.51;78.93;101207.53;5085228;28;20238;-81
2021/12/31 10:04:01;;;;;;;1.60;1.27;;;;;;;13.55;78.69;101199.63;5095457;28;20210;-83
2021/12/31 10:06:27;;;;;;;1.17;1.07;;;;;;;13.60;78.00;101217.00;5096056;28;20215;-83
2021/12/31 10:08:57;;;;;;;2.37;1.37;;;;;;;13.62;78.62;101203.88;5098723;28;20670;-81
2021/12/31 10:11:24;;;;;;;1.80;1.00;;;;;;;13.67;77.08;101247.47;5099521;28;20227;-82
2021/12/31 10:13:54;;;;;;;0.97;0.93;;;;;;;13.74;76.75;101263.97;5097962;28;20273;-81
2021/12/31 10:16:22;;;;;;;0.90;0.90;;;;;;;13.75;77.34;101272.69;5098642;28;20238;-82
2021/12/31 10:18:49;;;;;;;2.60;1.93;;;;;;;13.67;77.77;101241.34;5098062;28;20347;-80
2021/12/31 10:21:20;;;;;;;1.87;1.30;;;;;;;13.68;76.80;101271.97;5098907;28;20224;-81
2021/12/31 10:23:47;;;;;;;1.37;1.27;;;;;;;13.58;77.57;101247.66;5075593;28;20205;-82
2021/12/31 10:26:17;;;;;;;2.03;1.83;;;;;;;13.59;77.34;101249.34;5078573;28;20211;-82
2021/12/31 10:28:54;;;;;;;3.23;1.83;;;;;;;13.70;76.16;101288.53;5080901;28;20235;-82
2021/12/31 10:31:20;;;;;;;2.77;2.57;;;;;;;13.64;77.63;101244.91;5077662;28;20227;-81
2021/12/31 10:33:48;;;;;;;1.53;1.40;;;;;;;13.60;77.68;101213.53;5077294;28;20204;-82
2021/12/31 10:36:36;;;;;;;1.60;1.50;;;;;;;13.62;77.85;101235.34;5078290;28;20205;-82
2021/12/31 10:39:16;;;;;;;1.23;1.10;;;;;;;13.66;76.25;101263.25;5067589;28;20204;-82
2021/12/31 10:41:44;;;;;;;1.37;1.20;;;;;;;13.59;77.49;101241.50;5071202;28;20286;-82
2021/12/31 10:44:10;;;;;;;1.23;0.90;;;;;;;13.66;75.77;101244.88;5077046;28;20200;-81
2021/12/31 10:46:36;;;;;;;1.33;1.33;;;;;;;13.64;76.59;101259.78;5079366;28;20579;-80
2021/12/31 10:49:09;;;;;;;1.43;1.13;;;;;;;13.61;76.89;101251.97;5088838;28;20553;-81
2021/12/31 10:51:39;;;;;;;1.53;1.20;;;;;;;13.60;76.46;101235.38;5068170;28;20229;-80
2021/12/31 10:54:19;;;;;;;1.30;1.20;;;;;;;13.64;75.96;101244.91;5058278;28;20194;-81
2021/12/31 10:56:46;;;;;;;2.40;2.20;;;;;;;13.68;76.06;101248.34;5057476;28;20193;-82
2021/12/31 10:59:12;;;;;;;1.50;1.33;;;;;;;13.69;76.17;101260.56;5082657;28;20207;-83
2021/12/31 11:01:40;;;;;;;4.33;1.83;;;;;;;13.68;75.79;101245.72;5089287;28;20598;-79
2021/12/31 11:04:10;;;;;;;1.70;1.60;;;;;;;13.59;76.67;101219.66;5096977;28;20612;-82
2021/12/31 11:06:41;;;;;;;2.23;1.80;;;;;;;13.58;77.39;101210.91;5097168;28;20731;-82
2021/12/31 11:09:07;;;;;;;2.33;2.10;;;;;;;13.63;76.52;101234.44;5097274;28;20203;-81
2021/12/31 11:11:35;;;;;;;2.80;2.03;;;;;;;13.55;77.84;101184.72;5097231;28;20230;-79
2021/12/31 11:14:02;;;;;;;1.50;1.40;;;;;;;13.53;77.28;101198.78;5097684;28;20204;-79
2021/12/31 11:16:28;;;;;;;4.20;1.87;;;;;;;13.59;77.70;101182.94;5097446;28;20212;-82
2021/12/31 11:18:56;;;;;;;1.60;1.50;;;;;;;13.60;78.16;101156.66;5096663;28;20253;-81
2021/12/31 11:21:23;;;;;;;1.70;1.60;;;;;;;13.63;76.90;101190.69;5097388;28;20220;-80
2021/12/31 11:23:51;;;;;;;1.90;1.70;;;;;;;13.72;75.41;101215.03;5081292;28;20212;-80
2021/12/31 11:26:27;;;;;;;2.00;1.80;;;;;;;13.73;76.20;101211.50;5076874;28;20204;-81
2021/12/31 11:28:55;;;;;;;2.13;1.93;;;;;;;13.74;76.83;101197.50;5076713;28;20204;-80